createdAt,value
2023-07-27T00:01:53.477Z,0.75
2023-07-27T00:04:22.488Z,1.10
2023-07-27T00:06:50.093Z,0.70
2023-07-27T00:09:17.378Z,0.50
2023-07-27T00:11:44.150Z,0.55
2023-07-27T00:14:11.046Z,0.85
2023-07-27T00:16:37.878Z,0.55
2023-07-27T00:19:05.172Z,0.40
2023-07-27T00:21:31.990Z,0.80
2023-07-27T00:23:58.809Z,0.40
2023-07-27T00:26:25.622Z,0.68
2023-07-27T00:28:52.879Z,1.20
2023-07-27T00:31:19.927Z,0.68
2023-07-27T00:33:46.871Z,0.57
2023-07-27T00:36:13.689Z,0.90
2023-07-27T00:38:40.578Z,0.57
2023-07-27T00:41:08.707Z,0.90
2023-07-27T00:43:35.886Z,1.05
2023-07-27T00:46:02.772Z,1.65
2023-07-27T00:48:29.491Z,0.93
2023-07-27T00:50:56.347Z,0.73
2023-07-27T00:53:23.234Z,1.02
2023-07-27T00:55:50.318Z,0.65
2023-07-27T00:58:17.204Z,1.65
2023-07-27T01:00:44.532Z,0.70
2023-07-27T01:03:11.471Z,0.73
2023-07-27T01:05:39.008Z,0.50
2023-07-27T01:08:06.012Z,1.17
2023-07-27T01:10:57.766Z,0.52
2023-07-27T01:13:32.536Z,0.50
2023-07-27T01:16:01.855Z,0.52
2023-07-27T01:19:00.190Z,0.28
2023-07-27T01:21:30.991Z,0.85
2023-07-27T01:24:30.063Z,0.50
2023-07-27T01:27:09.491Z,1.02
2023-07-27T01:29:59.111Z,0.73
2023-07-27T01:32:26.210Z,0.15
2023-07-27T01:34:54.862Z,0.43
2023-07-27T01:37:21.666Z,0.40
2023-07-27T01:39:49.918Z,0.28
2023-07-27T01:42:16.895Z,0.20
2023-07-27T01:44:44.114Z,0.20
2023-07-27T01:47:10.859Z,0.55
2023-07-27T01:49:39.253Z,0.70
2023-07-27T01:52:06.527Z,0.25
2023-07-27T01:54:33.462Z,0.25
2023-07-27T01:57:00.268Z,0.30
2023-07-27T01:59:27.469Z,0.40
2023-07-27T02:01:54.295Z,0.35
2023-07-27T02:04:21.109Z,0.85
2023-07-27T02:06:51.005Z,0.20
2023-07-27T02:09:18.292Z,0.20
2023-07-27T02:11:47.565Z,0.35
2023-07-27T02:14:17.520Z,0.45
2023-07-27T02:17:01.907Z,0.30
2023-07-27T02:19:32.141Z,0.45
2023-07-27T02:21:59.121Z,0.60
2023-07-27T02:24:26.011Z,0.28
2023-07-27T02:26:52.835Z,0.30
2023-07-27T02:29:19.642Z,0.20
2023-07-27T02:31:46.464Z,0.50
2023-07-27T02:34:13.508Z,0.30
2023-07-27T02:36:40.757Z,0.65
2023-07-27T02:39:07.529Z,0.43
2023-07-27T02:41:35.080Z,0.50
2023-07-27T02:44:01.859Z,0.28
2023-07-27T02:46:28.661Z,0.38
2023-07-27T02:48:56.751Z,0.55
2023-07-27T02:51:24.396Z,0.32
2023-07-27T02:53:51.215Z,0.32
2023-07-27T02:56:17.906Z,0.30
2023-07-27T02:58:44.646Z,0.10
2023-07-27T03:01:11.435Z,0.25
2023-07-27T03:03:38.180Z,0.10
2023-07-27T03:06:05.005Z,0.28
2023-07-27T03:08:32.367Z,0.25
2023-07-27T03:11:03.433Z,0.30
2023-07-27T03:13:30.946Z,0.20
2023-07-27T03:15:57.876Z,0.40
2023-07-27T03:18:24.974Z,0.40
2023-07-27T03:20:52.134Z,0.30
2023-07-27T03:23:18.878Z,0.25
2023-07-27T03:25:45.637Z,0.10
2023-07-27T03:28:12.528Z,0.43
2023-07-27T03:30:39.627Z,0.25
2023-07-27T03:33:07.018Z,0.15
2023-07-27T03:35:35.500Z,0.28
2023-07-27T03:38:03.397Z,0.20
2023-07-27T03:40:30.365Z,0.22
2023-07-27T03:42:57.209Z,1.00
2023-07-27T03:45:24.012Z,0.20
2023-07-27T03:47:50.828Z,0.60
2023-07-27T03:50:17.656Z,0.10
2023-07-27T03:52:44.536Z,0.15
2023-07-27T03:55:11.554Z,0.28
2023-07-27T03:57:38.365Z,0.20
2023-07-27T04:00:06.780Z,0.20
2023-07-27T04:02:34.396Z,0.40
2023-07-27T04:05:01.374Z,0.20
2023-07-27T04:07:28.145Z,0.10
2023-07-27T04:09:54.991Z,0.30
2023-07-27T04:12:21.796Z,0.50
2023-07-27T04:14:48.722Z,0.32
2023-07-27T04:17:15.528Z,0.22
2023-07-27T04:19:42.368Z,0.43
2023-07-27T04:22:09.213Z,0.30
2023-07-27T04:24:36.440Z,0.20
2023-07-27T04:27:03.385Z,0.30
2023-07-27T04:29:30.288Z,0.30
2023-07-27T04:31:57.048Z,0.10
2023-07-27T04:34:23.964Z,0.10
2023-07-27T04:36:50.808Z,0.17
2023-07-27T04:39:17.672Z,0.30
2023-07-27T04:41:44.594Z,0.20
2023-07-27T04:44:11.480Z,0.25
2023-07-27T04:46:39.148Z,0.17
2023-07-27T04:49:07.969Z,0.17
2023-07-27T04:51:35.223Z,0.20
2023-07-27T04:54:03.019Z,0.13
2023-07-27T04:56:30.312Z,0.10
2023-07-27T04:58:57.162Z,0.10
2023-07-27T05:01:24.302Z,0.22
2023-07-27T05:03:52.384Z,0.15
2023-07-27T05:06:19.441Z,0.20
2023-07-27T05:08:46.399Z,0.10
2023-07-27T05:11:13.243Z,0.10
2023-07-27T05:13:40.146Z,0.00
2023-07-27T05:16:06.977Z,0.10
2023-07-27T05:18:34.084Z,0.82
2023-07-27T05:21:01.444Z,0.10
2023-07-27T05:23:28.885Z,0.35
2023-07-27T05:25:55.767Z,0.10
2023-07-27T05:28:22.636Z,0.20
2023-07-27T05:30:49.658Z,0.25
2023-07-27T05:33:16.473Z,0.20
2023-07-27T05:35:49.386Z,0.25
2023-07-27T05:40:43.193Z,0.08
2023-07-27T05:43:10.245Z,0.10
2023-07-27T05:45:40.662Z,0.10
2023-07-27T05:48:07.785Z,0.20
2023-07-27T05:50:35.580Z,0.10
2023-07-27T05:53:02.528Z,0.22
2023-07-27T05:55:29.331Z,0.20
2023-07-27T05:57:58.036Z,0.20
2023-07-27T06:00:28.719Z,0.20
2023-07-27T06:02:56.252Z,0.30
2023-07-27T06:05:23.101Z,0.20
2023-07-27T06:07:49.946Z,0.30
2023-07-27T06:10:17.214Z,0.40
2023-07-27T06:12:44.173Z,0.43
2023-07-27T06:15:11.156Z,0.50
2023-07-27T06:17:37.971Z,0.28
2023-07-27T06:20:06.631Z,0.52
2023-07-27T06:22:33.474Z,0.60
2023-07-27T06:25:00.250Z,0.30
2023-07-27T06:27:27.251Z,0.22
2023-07-27T06:29:54.103Z,1.70
2023-07-27T06:32:21.086Z,0.10
2023-07-27T06:34:47.987Z,0.50
2023-07-27T06:37:14.793Z,0.30
2023-07-27T06:39:41.696Z,0.17
2023-07-27T06:42:08.710Z,0.30
2023-07-27T06:44:35.458Z,0.60
2023-07-27T06:47:04.557Z,0.30
2023-07-27T06:49:34.126Z,0.50
2023-07-27T06:52:00.849Z,0.20
2023-07-27T06:54:27.982Z,0.40
2023-07-27T06:56:54.741Z,0.20
2023-07-27T06:59:21.931Z,0.15
2023-07-27T07:01:48.721Z,0.20
2023-07-27T07:04:15.622Z,0.40
2023-07-27T07:06:42.899Z,0.43
2023-07-27T07:09:11.899Z,0.20
2023-07-27T07:11:39.137Z,0.22
2023-07-27T07:14:05.936Z,0.25
2023-07-27T07:16:33.065Z,0.20
2023-07-27T07:19:00.103Z,0.28
2023-07-27T07:21:26.899Z,0.10
2023-07-27T07:23:53.887Z,0.30
2023-07-27T07:26:20.722Z,0.30
2023-07-27T07:28:47.840Z,0.20
2023-07-27T07:31:14.856Z,0.30
2023-07-27T07:33:41.963Z,0.20
2023-07-27T07:36:08.757Z,0.20
2023-07-27T07:38:35.685Z,0.20
2023-07-27T07:41:02.500Z,0.28
2023-07-27T07:43:29.247Z,0.10
2023-07-27T07:45:56.089Z,0.65
2023-07-27T07:48:24.144Z,0.30
2023-07-27T07:50:52.630Z,0.22
2023-07-27T07:53:26.681Z,0.75
2023-07-27T07:56:01.613Z,0.40
2023-07-27T07:58:28.461Z,0.13
2023-07-27T08:00:55.334Z,0.20
2023-07-27T08:03:22.511Z,0.20
2023-07-27T08:05:49.488Z,0.17
2023-07-27T08:08:16.273Z,0.30
2023-07-27T08:10:43.329Z,0.55
2023-07-27T08:13:10.117Z,0.55
2023-07-27T08:15:36.885Z,0.20
2023-07-27T08:18:03.872Z,0.40
2023-07-27T08:20:31.271Z,0.57
2023-07-27T08:22:58.137Z,0.70
2023-07-27T08:25:25.278Z,0.20
2023-07-27T08:27:55.722Z,1.42
2023-07-27T08:30:22.681Z,0.17
2023-07-27T08:32:49.789Z,0.20
2023-07-27T08:35:16.806Z,0.28
2023-07-27T08:37:43.656Z,0.20
2023-07-27T08:40:10.867Z,0.38
2023-07-27T08:42:37.980Z,0.28
2023-07-27T08:45:06.409Z,0.28
2023-07-27T08:47:34.525Z,0.50
2023-07-27T08:50:01.490Z,0.20
2023-07-27T08:52:28.269Z,0.20
2023-07-27T08:54:55.094Z,0.30
2023-07-27T08:57:21.941Z,0.82
2023-07-27T08:59:48.693Z,0.40
2023-07-27T09:02:15.909Z,1.33
2023-07-27T09:04:42.749Z,0.55
2023-07-27T09:07:09.591Z,0.30
2023-07-27T09:09:37.170Z,0.73
2023-07-27T09:12:08.135Z,0.20
2023-07-27T09:14:38.714Z,1.38
2023-07-27T09:17:05.910Z,0.30
2023-07-27T09:19:37.312Z,0.90
2023-07-27T09:22:04.232Z,0.60
2023-07-27T09:24:33.131Z,0.20
2023-07-27T09:27:00.016Z,0.73
2023-07-27T09:29:31.717Z,0.30
2023-07-27T09:31:59.885Z,0.60
2023-07-27T09:34:32.690Z,0.63
2023-07-27T09:39:33.402Z,0.30
2023-07-27T09:42:00.399Z,0.85
2023-07-27T09:44:27.104Z,0.40
2023-07-27T09:46:53.904Z,0.40
2023-07-27T09:49:21.460Z,0.80
2023-07-27T09:51:48.314Z,0.43
2023-07-27T09:54:15.277Z,0.47
2023-07-27T09:56:42.072Z,0.38
2023-07-27T09:59:08.998Z,0.63
2023-07-27T10:01:35.876Z,1.05
2023-07-27T10:04:02.729Z,0.50
2023-07-27T10:06:30.057Z,0.75
2023-07-27T10:08:56.989Z,0.80
2023-07-27T10:11:31.555Z,1.20
2023-07-27T10:13:58.627Z,2.10
2023-07-27T10:16:28.093Z,1.17
2023-07-27T10:18:56.346Z,0.73
2023-07-27T10:21:26.618Z,1.10
2023-07-27T10:23:55.122Z,1.10
2023-07-27T10:26:22.445Z,0.60
2023-07-27T10:28:50.228Z,0.80
2023-07-27T10:31:18.428Z,1.25
2023-07-27T10:34:19.145Z,1.30
2023-07-27T10:37:01.816Z,1.83
2023-07-27T10:39:33.520Z,1.02
2023-07-27T10:47:12.600Z,0.95
2023-07-27T10:49:46.626Z,1.00
2023-07-27T10:52:24.904Z,1.17
2023-07-27T10:54:52.610Z,1.10
2023-07-27T10:57:20.131Z,1.08
2023-07-27T10:59:49.189Z,0.85
2023-07-27T11:02:19.172Z,1.25
2023-07-27T11:04:46.330Z,0.70
2023-07-27T11:07:13.310Z,0.95
2023-07-27T11:09:45.135Z,0.60
2023-07-27T11:12:12.069Z,0.87
2023-07-27T11:14:38.875Z,0.63
2023-07-27T11:17:05.861Z,0.63
2023-07-27T11:19:32.917Z,0.75
2023-07-27T11:22:00.305Z,0.50
2023-07-27T11:24:27.883Z,0.40
2023-07-27T11:26:54.700Z,1.05
2023-07-27T11:29:21.405Z,0.60
2023-07-27T11:31:59.170Z,2.00
2023-07-27T11:34:26.992Z,0.70
2023-07-27T11:36:55.288Z,1.05
2023-07-27T11:39:22.272Z,0.70
2023-07-27T11:41:50.928Z,0.50
2023-07-27T11:44:20.187Z,0.52
2023-07-27T11:46:49.934Z,0.32
2023-07-27T11:49:17.489Z,0.70
2023-07-27T11:51:45.770Z,0.60
2023-07-27T11:54:24.550Z,0.77
2023-07-27T11:56:52.600Z,0.73
2023-07-27T11:59:20.734Z,0.47
2023-07-27T12:01:49.845Z,0.57
2023-07-27T12:04:16.852Z,1.08
2023-07-27T12:06:44.942Z,1.65
2023-07-27T12:09:12.981Z,0.90
2023-07-27T12:11:41.424Z,0.65
2023-07-27T12:14:09.533Z,0.60
2023-07-27T12:19:22.165Z,1.10
2023-07-27T12:21:54.986Z,0.80
2023-07-27T12:34:24.932Z,0.80
2023-07-27T12:39:22.687Z,1.33
2023-07-27T12:44:19.113Z,0.80
2023-07-27T12:46:45.993Z,1.30
2023-07-27T12:49:12.861Z,1.05
2023-07-27T12:51:39.832Z,2.30
2023-07-27T12:54:07.641Z,1.27
2023-07-27T12:56:34.587Z,0.80
2023-07-27T12:59:01.389Z,1.15
2023-07-27T13:01:28.200Z,0.98
2023-07-27T13:03:55.650Z,0.70
2023-07-27T13:06:22.567Z,1.20
2023-07-27T13:08:49.287Z,1.23
2023-07-27T13:11:16.165Z,1.48
2023-07-27T13:13:42.961Z,1.10
2023-07-27T13:16:09.755Z,0.98
2023-07-27T13:18:36.498Z,1.10
2023-07-27T13:21:03.314Z,1.38
2023-07-27T13:23:30.059Z,0.88
2023-07-27T13:25:56.863Z,1.35
2023-07-27T13:28:23.816Z,0.85
2023-07-27T13:30:50.641Z,1.48
2023-07-27T13:33:17.422Z,1.75
2023-07-27T13:35:44.220Z,1.02
2023-07-27T13:38:10.925Z,1.65
2023-07-27T13:40:37.769Z,0.63
2023-07-27T13:43:04.630Z,1.45
2023-07-27T13:45:31.451Z,0.50
2023-07-27T13:48:08.359Z,1.60
2023-07-27T13:50:36.561Z,0.90
2023-07-27T13:53:03.378Z,1.13
2023-07-27T13:55:30.068Z,0.50
2023-07-27T13:57:56.823Z,1.10
2023-07-27T14:00:23.654Z,1.15
2023-07-27T14:02:50.567Z,0.77
2023-07-27T14:05:18.661Z,1.55
2023-07-27T14:07:45.689Z,0.50
2023-07-27T14:10:13.263Z,0.88
2023-07-27T14:12:40.195Z,0.77
2023-07-27T14:15:07.698Z,0.80
2023-07-27T14:17:35.277Z,1.13
2023-07-27T14:20:02.212Z,1.20
2023-07-27T14:22:34.099Z,1.58
2023-07-27T14:25:00.844Z,0.88
2023-07-27T14:29:57.335Z,1.52
2023-07-27T14:32:24.205Z,1.33
2023-07-27T14:34:50.956Z,0.98
2023-07-27T14:37:17.686Z,1.15
2023-07-27T14:42:13.995Z,1.17
2023-07-27T14:44:40.723Z,1.00
2023-07-27T14:47:09.176Z,0.60
2023-07-27T14:52:06.268Z,0.85
2023-07-27T14:54:33.166Z,0.90
2023-07-27T14:57:02.243Z,1.20
2023-07-27T14:59:30.150Z,0.60
2023-07-27T15:07:08.387Z,1.65
2023-07-27T15:09:36.935Z,1.20
2023-07-27T15:12:05.026Z,1.08
2023-07-27T15:14:32.060Z,1.27
2023-07-27T15:16:59.218Z,0.80
2023-07-27T15:19:26.168Z,1.05
2023-07-27T15:21:55.466Z,0.93
2023-07-27T15:24:23.294Z,0.98
2023-07-27T15:26:51.230Z,0.93
2023-07-27T15:29:18.040Z,0.80
2023-07-27T15:31:44.780Z,0.70
2023-07-27T15:34:12.343Z,1.05
2023-07-27T15:36:39.103Z,1.15
2023-07-27T15:39:06.323Z,1.23
2023-07-27T15:41:33.088Z,0.85
2023-07-27T15:43:59.861Z,0.90
2023-07-27T15:46:26.872Z,1.17
2023-07-27T15:48:53.649Z,1.30
2023-07-27T15:51:21.472Z,1.17
2023-07-27T15:53:49.020Z,1.45
2023-07-27T15:56:16.053Z,1.25
2023-07-27T15:58:43.209Z,1.00
2023-07-27T16:01:10.486Z,0.80
2023-07-27T16:03:37.380Z,0.80
2023-07-27T16:06:05.615Z,1.83
2023-07-27T16:08:32.431Z,1.50
2023-07-27T16:10:59.193Z,1.33
2023-07-27T16:13:26.336Z,1.10
2023-07-27T16:15:53.354Z,0.80
2023-07-27T16:18:20.109Z,0.98
2023-07-27T16:20:46.952Z,0.93
2023-07-27T16:23:15.010Z,0.75
2023-07-27T16:25:42.670Z,1.13
2023-07-27T16:28:09.533Z,1.00
2023-07-27T16:30:36.666Z,1.00
2023-07-27T16:33:03.804Z,1.00
2023-07-27T16:35:31.530Z,0.95
2023-07-27T16:37:58.350Z,1.10
2023-07-27T16:40:25.376Z,0.90
2023-07-27T16:42:52.447Z,1.10
2023-07-27T16:45:22.531Z,0.70
2023-07-27T16:47:49.310Z,1.00
2023-07-27T16:50:16.267Z,1.05
2023-07-27T16:52:43.034Z,0.60
2023-07-27T16:55:10.307Z,0.63
2023-07-27T16:57:37.067Z,0.88
2023-07-27T17:00:04.224Z,1.00
2023-07-27T17:02:32.524Z,0.80
2023-07-27T17:04:59.434Z,0.93
2023-07-27T17:07:26.282Z,1.27
2023-07-27T17:09:53.107Z,1.67
2023-07-27T17:12:19.898Z,1.95
2023-07-27T17:14:46.863Z,1.27
2023-07-27T17:17:13.666Z,1.17
2023-07-27T17:19:40.363Z,1.27
2023-07-27T17:22:07.209Z,1.35
2023-07-27T17:24:33.940Z,1.55
2023-07-27T17:27:00.665Z,1.00
2023-07-27T17:29:27.831Z,1.23
2023-07-27T17:31:54.666Z,1.02
2023-07-27T17:34:21.589Z,1.15
2023-07-27T17:36:48.324Z,1.20
2023-07-27T17:39:15.152Z,0.60
2023-07-27T17:41:44.359Z,1.63
2023-07-27T17:44:11.267Z,0.80
2023-07-27T17:46:38.595Z,0.98
2023-07-27T17:49:05.350Z,1.25
2023-07-27T17:51:32.630Z,1.45
2023-07-27T17:54:00.024Z,1.20
2023-07-27T17:56:26.725Z,1.05
2023-07-27T17:58:54.021Z,1.02
2023-07-27T18:01:20.788Z,1.02
2023-07-27T18:03:48.152Z,1.63
2023-07-27T18:06:15.148Z,1.08
2023-07-27T18:08:41.998Z,1.00
2023-07-27T18:11:10.363Z,1.08
2023-07-27T18:13:37.332Z,1.48
2023-07-27T18:16:09.946Z,1.08
2023-07-27T18:21:09.670Z,1.50
2023-07-27T18:23:36.575Z,1.38
2023-07-27T18:26:03.426Z,1.27
2023-07-27T18:28:31.395Z,0.98
2023-07-27T18:31:00.629Z,0.93
2023-07-27T18:33:29.267Z,1.02
2023-07-27T18:35:56.017Z,0.70
2023-07-27T18:38:22.795Z,1.13
2023-07-27T18:40:49.684Z,1.65
2023-07-27T18:43:16.440Z,1.25
2023-07-27T18:45:53.940Z,1.27
2023-07-27T18:48:21.389Z,1.40
2023-07-27T18:50:48.320Z,1.55
2023-07-27T18:53:15.136Z,1.38
2023-07-27T18:55:42.027Z,1.23
2023-07-27T18:58:09.096Z,2.15
2023-07-27T19:00:35.870Z,1.52
2023-07-27T19:03:04.658Z,2.03
2023-07-27T19:05:33.038Z,1.50
2023-07-27T19:08:00.068Z,1.50
2023-07-27T19:10:27.403Z,1.40
2023-07-27T19:12:54.231Z,1.65
2023-07-27T19:15:20.985Z,1.20
2023-07-27T19:17:48.022Z,1.42
2023-07-27T19:20:15.788Z,1.65
2023-07-27T19:22:42.623Z,1.30
2023-07-27T19:25:09.744Z,1.33
2023-07-27T19:27:36.592Z,1.98
2023-07-27T19:30:03.512Z,1.70
2023-07-27T19:32:30.301Z,1.70
2023-07-27T19:34:57.071Z,1.40
2023-07-27T19:37:23.878Z,1.25
2023-07-27T19:39:50.741Z,1.33
2023-07-27T19:42:17.487Z,1.38
2023-07-27T19:44:44.305Z,1.88
2023-07-27T19:47:11.158Z,1.27
2023-07-27T19:49:47.483Z,1.40
2023-07-27T19:52:21.115Z,1.65
2023-07-27T19:54:48.287Z,1.67
2023-07-27T19:57:15.128Z,1.42
2023-07-27T19:59:42.481Z,1.40
2023-07-27T20:02:10.056Z,1.45
2023-07-27T20:04:36.854Z,1.13
2023-07-27T20:07:03.776Z,1.20
2023-07-27T20:09:30.568Z,1.38
2023-07-27T20:11:57.463Z,1.25
2023-07-27T20:14:35.168Z,1.63
2023-07-27T20:17:03.120Z,1.52
2023-07-27T20:19:30.424Z,1.27
2023-07-27T20:21:57.370Z,1.67
2023-07-27T20:24:24.392Z,1.35
2023-07-27T20:26:51.336Z,1.10
2023-07-27T20:29:22.383Z,1.90
2023-07-27T20:31:50.086Z,1.38
2023-07-27T20:34:17.173Z,1.25
2023-07-27T20:36:44.202Z,1.55
2023-07-27T20:39:10.986Z,1.30
2023-07-27T20:41:37.938Z,1.40
2023-07-27T20:44:05.500Z,1.08
2023-07-27T20:46:32.892Z,1.55
2023-07-27T20:49:00.011Z,1.17
2023-07-27T20:51:26.924Z,1.20
2023-07-27T20:53:53.819Z,1.23
2023-07-27T20:56:22.724Z,1.70
2023-07-27T20:58:49.926Z,0.70
2023-07-27T21:01:16.986Z,1.42
2023-07-27T21:03:43.968Z,1.27
2023-07-27T21:06:10.946Z,1.77
2023-07-27T21:08:40.055Z,1.42
2023-07-27T21:11:07.439Z,1.50
2023-07-27T21:13:34.497Z,1.17
2023-07-27T21:16:05.548Z,2.08
2023-07-27T21:18:32.460Z,1.35
2023-07-27T21:20:59.298Z,1.30
2023-07-27T21:23:26.646Z,1.42
2023-07-27T21:26:00.448Z,1.52
2023-07-27T21:28:28.181Z,1.85
2023-07-27T21:30:59.958Z,1.27
2023-07-27T21:33:29.124Z,1.10
2023-07-27T21:35:56.996Z,1.73
2023-07-27T21:38:23.837Z,1.10
2023-07-27T21:40:51.333Z,1.40
2023-07-27T21:43:20.762Z,1.20
2023-07-27T21:45:48.189Z,0.85
2023-07-27T21:48:14.915Z,1.35
2023-07-27T21:50:44.412Z,1.20
2023-07-27T21:53:11.190Z,1.15
2023-07-27T21:55:37.955Z,1.55
2023-07-27T21:58:04.697Z,1.88
2023-07-27T22:00:31.798Z,1.73
2023-07-27T22:02:58.546Z,1.40
2023-07-27T22:05:25.847Z,1.67
2023-07-27T22:07:52.642Z,1.00
2023-07-27T22:10:19.551Z,1.92
2023-07-27T22:12:46.389Z,1.40
2023-07-27T22:15:13.222Z,1.33
2023-07-27T22:17:41.042Z,1.70
2023-07-27T22:20:10.689Z,1.15
2023-07-27T22:22:37.721Z,1.65
2023-07-27T22:25:05.783Z,1.73
2023-07-27T22:27:35.656Z,1.00
2023-07-27T22:30:06.254Z,1.25
2023-07-27T22:32:33.468Z,1.08
2023-07-27T22:35:00.508Z,1.33
2023-07-27T22:37:27.294Z,2.13
2023-07-27T22:39:54.156Z,1.52
2023-07-27T22:42:20.978Z,1.55
2023-07-27T22:44:47.722Z,1.40
2023-07-27T22:47:14.688Z,1.25
2023-07-27T22:49:41.902Z,1.02
2023-07-27T22:52:08.882Z,2.15
2023-07-27T22:54:35.853Z,1.13
2023-07-27T22:57:02.665Z,1.38
2023-07-27T22:59:29.579Z,1.25
2023-07-27T23:01:57.600Z,2.38
2023-07-27T23:04:24.843Z,1.30
2023-07-27T23:06:51.726Z,1.10
2023-07-27T23:09:18.610Z,1.55
2023-07-27T23:11:45.893Z,2.85
2023-07-27T23:14:13.278Z,1.80
2023-07-27T23:16:40.119Z,1.30
2023-07-27T23:19:06.922Z,1.38
2023-07-27T23:21:33.732Z,1.40
2023-07-27T23:24:00.787Z,2.33
2023-07-27T23:26:28.084Z,1.52
2023-07-27T23:28:54.914Z,1.38
2023-07-27T23:31:21.758Z,2.45
2023-07-27T23:33:48.780Z,1.33
2023-07-27T23:36:15.557Z,1.80
2023-07-27T23:38:42.449Z,1.38
2023-07-27T23:41:10.563Z,1.55
2023-07-27T23:43:37.693Z,2.03
2023-07-27T23:46:04.983Z,2.28
2023-07-27T23:48:31.932Z,2.22
2023-07-27T23:50:58.982Z,2.00
2023-07-27T23:53:25.795Z,1.95
2023-07-27T23:55:52.575Z,1.58
2023-07-27T23:58:19.774Z,1.77
